Time;durP1;ratioP1;P1;durP2;ratioP2;P2;SDS_P1;SDS_P2;PMS_P1;PMS_P2;Temp;Humidity;BMP_temperature;BMP_pressure;BME280_temperature;BME280_humidity;BME280_pressure;Samples;Min_cycle;Max_cycle;Signal;HPM_P1;HPM_P2
2023/07/22 00:00:30;;;;;;;;;;;;;;;;;;4979079;28;19975;-58
2023/07/22 00:02:56;;;;;;;;;;;;;;;;;;4978540;28;19972;-57
2023/07/22 00:05:23;;;;;;;;;;;;;;;;;;4978218;28;19930;-58
2023/07/22 00:07:49;;;;;;;;;;;;;;;;;;4976776;28;19997;-57
2023/07/22 00:10:15;;;;;;;;;;;;;;;;;;4983301;28;20008;-57
2023/07/22 00:12:41;;;;;;;;;;;;;;;;;;4981957;28;20052;-57
2023/07/22 00:15:07;;;;;;;;;;;;;;;;;;4971033;28;19930;-57
2023/07/22 00:17:33;;;;;;;;;;;;;;;;;;4972067;28;19934;-57
2023/07/22 00:20:00;;;;;;;;;;;;;;;;;;4976346;28;20442;-58
2023/07/22 00:22:26;;;;;;;;;;;;;;;;;;4978617;28;19925;-58
2023/07/22 00:24:52;;;;;;;;;;;;;;;;;;4965237;28;20234;-57
2023/07/22 00:27:18;;;;;;;;;;;;;;;;;;4964654;28;19930;-58
2023/07/22 00:29:44;;;;;;;;;;;;;;;;;;4981319;28;20000;-57
2023/07/22 00:32:10;;;;;;;;;;;;;;;;;;4982943;28;20384;-58
2023/07/22 00:34:39;;;;;;;;;;;;;;;;;;4978998;28;19926;-57
2023/07/22 00:37:05;;;;;;;;;;;;;;;;;;4981671;28;20020;-57
2023/07/22 00:39:31;;;;;;;;;;;;;;;;;;4978597;28;20005;-57
2023/07/22 00:41:57;;;;;;;;;;;;;;;;;;4976064;28;19980;-58
2023/07/22 00:44:23;;;;;;;;;;;;;;;;;;4973203;28;20378;-57
2023/07/22 00:46:49;;;;;;;;;;;;;;;;;;4975279;28;20311;-57
2023/07/22 00:49:14;;;;;;;;;;;;;;;;;;4976209;28;19973;-57
2023/07/22 00:51:40;;;;;;;;;;;;;;;;;;4979209;28;19973;-57
2023/07/22 00:54:06;;;;;;;;;;;;;;;;;;4981432;28;20042;-57
2023/07/22 00:56:32;;;;;;;;;;;;;;;;;;4982456;28;20057;-57
2023/07/22 00:58:58;;;;;;;;;;;;;;;;;;4979464;28;19948;-57
2023/07/22 01:01:24;;;;;;;;;;;;;;;;;;4980159;28;20418;-57
2023/07/22 01:06:19;;;;;;;;;;;;;;;;;;4983994;28;19948;-66
2023/07/22 01:08:46;;;;;;;;;;;;;;;;;;4995875;28;20311;-66
2023/07/22 01:11:12;;;;;;;;;;;;;;;;;;5001302;28;20012;-66
2023/07/22 01:13:38;;;;;;;;;;;;;;;;;;4996324;28;20418;-67
2023/07/22 01:16:04;;;;;;;;;;;;;;;;;;4998962;28;19988;-67
2023/07/22 01:18:30;;;;;;;;;;;;;;;;;;4998401;28;20234;-66
2023/07/22 01:20:56;;;;;;;;;;;;;;;;;;4997350;28;20545;-66
2023/07/22 01:23:22;;;;;;;;;;;;;;;;;;4992022;28;19952;-66
2023/07/22 01:25:48;;;;;;;;;;;;;;;;;;4999792;28;19925;-68
2023/07/22 01:28:14;;;;;;;;;;;;;;;;;;4998852;28;19952;-66
2023/07/22 01:30:40;;;;;;;;;;;;;;;;;;4999032;28;19932;-67
2023/07/22 01:33:06;;;;;;;;;;;;;;;;;;4981327;28;19925;-67
2023/07/22 01:35:31;;;;;;;;;;;;;;;;;;4984703;28;19972;-66
2023/07/22 01:37:57;;;;;;;;;;;;;;;;;;4996028;28;20337;-66
2023/07/22 01:40:23;;;;;;;;;;;;;;;;;;4998897;28;20399;-66
2023/07/22 01:42:49;;;;;;;;;;;;;;;;;;5001727;28;19979;-66
2023/07/22 01:45:15;;;;;;;;;;;;;;;;;;5001327;28;19925;-67
2023/07/22 01:47:41;;;;;;;;;;;;;;;;;;5004965;28;19965;-66
2023/07/22 01:50:07;;;;;;;;;;;;;;;;;;4998945;28;20016;-67
2023/07/22 01:52:33;;;;;;;;;;;;;;;;;;4999188;28;20068;-67
2023/07/22 01:54:59;;;;;;;;;;;;;;;;;;5005399;28;19932;-67
2023/07/22 01:57:25;;;;;;;;;;;;;;;;;;5003254;28;20426;-67
2023/07/22 01:59:51;;;;;;;;;;;;;;;;;;5003102;28;19936;-66
2023/07/22 02:02:16;;;;;;;;;;;;;;;;;;5001582;28;20008;-66
2023/07/22 02:04:42;;;;;;;;;;;;;;;;;;5003257;28;19979;-65
2023/07/22 02:07:08;;;;;;;;;;;;;;;;;;5003415;28;19925;-67
2023/07/22 02:09:35;;;;;;;;;;;;;;;;;;5002998;28;19926;-67
2023/07/22 02:12:00;;;;;;;;;;;;;;;;;;4999390;28;20435;-65
2023/07/22 02:14:26;;;;;;;;;;;;;;;;;;5000065;28;19996;-68
2023/07/22 02:16:52;;;;;;;;;;;;;;;;;;5000574;28;20016;-68
2023/07/22 02:19:18;;;;;;;;;;;;;;;;;;4998518;28;19930;-68
2023/07/22 02:21:44;;;;;;;;;;;;;;;;;;5004943;28;20012;-68
2023/07/22 02:24:10;;;;;;;;;;;;;;;;;;5002236;28;20626;-67
2023/07/22 02:26:36;;;;;;;;;;;;;;;;;;5004124;28;19925;-67
2023/07/22 02:29:02;;;;;;;;;;;;;;;;;;5001933;28;19932;-67
2023/07/22 02:31:28;;;;;;;;;;;;;;;;;;5000575;28;19957;-67
2023/07/22 02:33:54;;;;;;;;;;;;;;;;;;4993387;28;20072;-67
2023/07/22 02:36:20;;;;;;;;;;;;;;;;;;4980134;28;19929;-67
2023/07/22 02:38:45;;;;;;;;;;;;;;;;;;4995259;28;19932;-67
2023/07/22 02:41:11;;;;;;;;;;;;;;;;;;4994414;28;19925;-67
2023/07/22 02:43:37;;;;;;;;;;;;;;;;;;5002556;28;19933;-67
2023/07/22 02:46:03;;;;;;;;;;;;;;;;;;4991989;28;19932;-67
2023/07/22 02:48:29;;;;;;;;;;;;;;;;;;4991674;28;19981;-66
2023/07/22 02:50:55;;;;;;;;;;;;;;;;;;4992068;28;19930;-67
2023/07/22 02:53:21;;;;;;;;;;;;;;;;;;4997670;28;19930;-67
2023/07/22 02:55:48;;;;;;;;;;;;;;;;;;5003636;28;19925;-67
2023/07/22 02:58:14;;;;;;;;;;;;;;;;;;4999279;28;20378;-67
2023/07/22 03:00:40;;;;;;;;;;;;;;;;;;5000965;28;19925;-67
2023/07/22 03:03:05;;;;;;;;;;;;;;;;;;4985961;28;19925;-67
2023/07/22 03:05:32;;;;;;;;;;;;;;;;;;5003553;28;19926;-66
2023/07/22 03:07:58;;;;;;;;;;;;;;;;;;5000842;28;20379;-67
2023/07/22 03:10:25;;;;;;;;;;;;;;;;;;4986959;28;19930;-67
2023/07/22 03:12:54;;;;;;;;;;;;;;;;;;4993379;28;19984;-66
2023/07/22 03:15:20;;;;;;;;;;;;;;;;;;4980008;28;20531;-68
2023/07/22 03:17:47;;;;;;;;;;;;;;;;;;4991576;28;19973;-67
2023/07/22 03:20:19;;;;;;;;;;;;;;;;;;4991678;28;19968;-66
2023/07/22 03:22:45;;;;;;;;;;;;;;;;;;4997308;28;19964;-67
2023/07/22 03:25:11;;;;;;;;;;;;;;;;;;4996230;28;20424;-66
2023/07/22 03:27:37;;;;;;;;;;;;;;;;;;4995326;28;20019;-67
2023/07/22 03:30:03;;;;;;;;;;;;;;;;;;5002499;28;19931;-67
2023/07/22 03:32:29;;;;;;;;;;;;;;;;;;5002410;28;19926;-67
2023/07/22 03:34:55;;;;;;;;;;;;;;;;;;4997879;28;19925;-67
2023/07/22 03:37:20;;;;;;;;;;;;;;;;;;4997861;28;20256;-68
2023/07/22 03:39:46;;;;;;;;;;;;;;;;;;4999672;28;19972;-66
2023/07/22 03:42:12;;;;;;;;;;;;;;;;;;4979532;28;20395;-66
2023/07/22 03:44:40;;;;;;;;;;;;;;;;;;4999657;28;19957;-66
2023/07/22 03:47:06;;;;;;;;;;;;;;;;;;4998138;28;19980;-67
2023/07/22 03:49:32;;;;;;;;;;;;;;;;;;5001448;28;19925;-67
2023/07/22 03:51:58;;;;;;;;;;;;;;;;;;5000591;28;19925;-68
2023/07/22 03:54:24;;;;;;;;;;;;;;;;;;5001874;28;19925;-68
2023/07/22 03:56:50;;;;;;;;;;;;;;;;;;5001653;28;20555;-67
2023/07/22 03:59:16;;;;;;;;;;;;;;;;;;5001610;28;19925;-68
2023/07/22 04:01:42;;;;;;;;;;;;;;;;;;4998235;28;20002;-68
2023/07/22 04:04:08;;;;;;;;;;;;;;;;;;4997222;28;20023;-68
2023/07/22 04:06:34;;;;;;;;;;;;;;;;;;5000415;28;19930;-67
2023/07/22 04:09:02;;;;;;;;;;;;;;;;;;5000660;28;19926;-67
2023/07/22 04:11:28;;;;;;;;;;;;;;;;;;4998743;28;20556;-67
2023/07/22 04:13:54;;;;;;;;;;;;;;;;;;5002193;28;19966;-67
2023/07/22 04:16:20;;;;;;;;;;;;;;;;;;4992323;28;20215;-68
2023/07/22 04:18:46;;;;;;;;;;;;;;;;;;5002935;28;19933;-68
2023/07/22 04:21:12;;;;;;;;;;;;;;;;;;4989982;28;19980;-67
2023/07/22 04:23:38;;;;;;;;;;;;;;;;;;4999134;28;19933;-67
2023/07/22 04:26:10;;;;;;;;;;;;;;;;;;4989615;28;20375;-67
2023/07/22 04:28:36;;;;;;;;;;;;;;;;;;4999461;28;19926;-68
2023/07/22 04:31:02;;;;;;;;;;;;;;;;;;4996171;28;19936;-67
2023/07/22 04:33:28;;;;;;;;;;;;;;;;;;4994444;28;19925;-67
2023/07/22 04:35:54;;;;;;;;;;;;;;;;;;4996864;28;19926;-67
2023/07/22 04:38:19;;;;;;;;;;;;;;;;;;4987328;28;19937;-67
2023/07/22 04:40:45;;;;;;;;;;;;;;;;;;5000725;28;19926;-69
2023/07/22 04:43:12;;;;;;;;;;;;;;;;;;5001503;28;20307;-67
2023/07/22 04:45:40;;;;;;;;;;;;;;;;;;4997485;28;20438;-68
2023/07/22 04:48:06;;;;;;;;;;;;;;;;;;4998964;28;19921;-68
2023/07/22 04:50:32;;;;;;;;;;;;;;;;;;4976064;28;19929;-63
2023/07/22 04:52:58;;;;;;;;;;;;;;;;;;4978823;28;19960;-68
2023/07/22 04:55:24;;;;;;;;;;;;;;;;;;5002667;28;19929;-69
2023/07/22 04:57:51;;;;;;;;;;;;;;;;;;4998372;28;20457;-68
2023/07/22 05:00:18;;;;;;;;;;;;;;;;;;5000599;28;19928;-67
2023/07/22 05:02:45;;;;;;;;;;;;;;;;;;5000964;28;19988;-68
2023/07/22 05:05:11;;;;;;;;;;;;;;;;;;5001305;28;19929;-66
2023/07/22 05:07:37;;;;;;;;;;;;;;;;;;5001464;28;19979;-67
2023/07/22 05:10:02;;;;;;;;;;;;;;;;;;5001685;28;19925;-67
2023/07/22 05:12:28;;;;;;;;;;;;;;;;;;4984600;28;20838;-68
2023/07/22 05:14:54;;;;;;;;;;;;;;;;;;5003681;28;19929;-68
2023/07/22 05:17:21;;;;;;;;;;;;;;;;;;5005683;28;20359;-67
2023/07/22 05:19:48;;;;;;;;;;;;;;;;;;5006147;28;19926;-67
2023/07/22 05:22:14;;;;;;;;;;;;;;;;;;5005999;28;20014;-68
2023/07/22 05:24:40;;;;;;;;;;;;;;;;;;5003539;28;20008;-68
2023/07/22 05:27:06;;;;;;;;;;;;;;;;;;4986571;28;20649;-68
2023/07/22 05:29:32;;;;;;;;;;;;;;;;;;5006725;28;19988;-64
2023/07/22 05:31:58;;;;;;;;;;;;;;;;;;4997539;28;19926;-68
2023/07/22 05:34:24;;;;;;;;;;;;;;;;;;5004268;28;19979;-68
2023/07/22 05:36:50;;;;;;;;;;;;;;;;;;5006487;28;20012;-66
2023/07/22 05:39:18;;;;;;;;;;;;;;;;;;5005089;28;19925;-67
2023/07/22 05:41:43;;;;;;;;;;;;;;;;;;5004413;28;19929;-68
2023/07/22 05:44:09;;;;;;;;;;;;;;;;;;5002707;28;19930;-68
2023/07/22 05:46:35;;;;;;;;;;;;;;;;;;5003894;28;19929;-67
2023/07/22 05:49:01;;;;;;;;;;;;;;;;;;5005827;28;20397;-68
2023/07/22 05:51:27;;;;;;;;;;;;;;;;;;4983001;28;20355;-69
2023/07/22 05:53:53;;;;;;;;;;;;;;;;;;5005583;28;19933;-69
2023/07/22 05:56:19;;;;;;;;;;;;;;;;;;5002929;28;19933;-66
2023/07/22 05:58:45;;;;;;;;;;;;;;;;;;5004425;28;19926;-67
2023/07/22 06:01:12;;;;;;;;;;;;;;;;;;5005621;28;19936;-66
2023/07/22 06:03:38;;;;;;;;;;;;;;;;;;4998393;28;19956;-69
2023/07/22 06:06:04;;;;;;;;;;;;;;;;;;4999754;28;19969;-67
2023/07/22 06:08:30;;;;;;;;;;;;;;;;;;4996475;28;20425;-71
2023/07/22 06:10:56;;;;;;;;;;;;;;;;;;5002477;28;19935;-70
2023/07/22 06:13:23;;;;;;;;;;;;;;;;;;4993778;28;19952;-71
2023/07/22 06:15:50;;;;;;;;;;;;;;;;;;4993026;28;19934;-70
2023/07/22 06:18:18;;;;;;;;;;;;;;;;;;5003391;28;20367;-68
2023/07/22 06:20:44;;;;;;;;;;;;;;;;;;4997265;28;19996;-69
2023/07/22 06:23:10;;;;;;;;;;;;;;;;;;4997222;28;19929;-68
2023/07/22 06:25:36;;;;;;;;;;;;;;;;;;5001317;28;19933;-69
2023/07/22 06:28:01;;;;;;;;;;;;;;;;;;5004093;28;19991;-68
2023/07/22 06:30:27;;;;;;;;;;;;;;;;;;4996118;28;19925;-68
2023/07/22 06:32:53;;;;;;;;;;;;;;;;;;4969455;28;19987;-69
2023/07/22 06:35:19;;;;;;;;;;;;;;;;;;4994670;28;19926;-69
2023/07/22 06:37:45;;;;;;;;;;;;;;;;;;5002903;28;19965;-68
2023/07/22 06:40:11;;;;;;;;;;;;;;;;;;5004097;28;19995;-67
2023/07/22 06:42:37;;;;;;;;;;;;;;;;;;4993690;28;20064;-69
2023/07/22 06:45:03;;;;;;;;;;;;;;;;;;5001791;28;19933;-69
2023/07/22 06:47:29;;;;;;;;;;;;;;;;;;4997261;28;19926;-70
2023/07/22 06:49:55;;;;;;;;;;;;;;;;;;5002674;28;19955;-69
2023/07/22 06:52:21;;;;;;;;;;;;;;;;;;4995515;28;20439;-69
2023/07/22 06:54:47;;;;;;;;;;;;;;;;;;5004956;28;19933;-69
2023/07/22 06:57:12;;;;;;;;;;;;;;;;;;5003102;28;19926;-69
2023/07/22 06:59:39;;;;;;;;;;;;;;;;;;5001901;28;19935;-71
2023/07/22 07:02:05;;;;;;;;;;;;;;;;;;5000527;28;19926;-70
2023/07/22 07:04:31;;;;;;;;;;;;;;;;;;5002726;28;19936;-68
2023/07/22 07:06:57;;;;;;;;;;;;;;;;;;5005203;28;19925;-69
2023/07/22 07:09:23;;;;;;;;;;;;;;;;;;4993165;28;19978;-70
2023/07/22 07:11:49;;;;;;;;;;;;;;;;;;4992172;28;19968;-70
2023/07/22 07:14:15;;;;;;;;;;;;;;;;;;4995019;28;20003;-69
2023/07/22 07:16:40;;;;;;;;;;;;;;;;;;4997198;28;20375;-70
2023/07/22 07:19:06;;;;;;;;;;;;;;;;;;4999716;28;19925;-70
2023/07/22 07:21:32;;;;;;;;;;;;;;;;;;5000067;28;19983;-70
2023/07/22 07:23:58;;;;;;;;;;;;;;;;;;4996738;28;19933;-70
2023/07/22 07:26:24;;;;;;;;;;;;;;;;;;4988225;28;19924;-70
2023/07/22 07:28:53;;;;;;;;;;;;;;;;;;5001934;28;19925;-70
2023/07/22 07:31:19;;;;;;;;;;;;;;;;;;5001536;28;19921;-68
2023/07/22 07:33:45;;;;;;;;;;;;;;;;;;4974193;28;19925;-69
2023/07/22 07:36:11;;;;;;;;;;;;;;;;;;4996046;28;19937;-69
2023/07/22 07:38:37;;;;;;;;;;;;;;;;;;5000667;28;19921;-69
2023/07/22 07:41:03;;;;;;;;;;;;;;;;;;4997617;28;20346;-70
2023/07/22 07:43:29;;;;;;;;;;;;;;;;;;4997340;28;20415;-68
2023/07/22 07:45:55;;;;;;;;;;;;;;;;;;4995460;28;19984;-69
2023/07/22 07:48:20;;;;;;;;;;;;;;;;;;4996604;28;19929;-67
2023/07/22 07:50:46;;;;;;;;;;;;;;;;;;4995801;28;19934;-69
2023/07/22 07:53:12;;;;;;;;;;;;;;;;;;4996852;28;20631;-68
2023/07/22 07:55:38;;;;;;;;;;;;;;;;;;5003261;28;19980;-69
2023/07/22 07:58:04;;;;;;;;;;;;;;;;;;5002515;28;19952;-68
2023/07/22 08:00:30;;;;;;;;;;;;;;;;;;5002764;28;20028;-68
2023/07/22 08:02:56;;;;;;;;;;;;;;;;;;5003215;28;19995;-68
2023/07/22 08:05:22;;;;;;;;;;;;;;;;;;4997809;28;19929;-68
2023/07/22 08:07:48;;;;;;;;;;;;;;;;;;4989878;28;19926;-67
2023/07/22 08:10:14;;;;;;;;;;;;;;;;;;4994546;28;20367;-67
2023/07/22 08:12:40;;;;;;;;;;;;;;;;;;4993832;28;20371;-68
2023/07/22 08:15:06;;;;;;;;;;;;;;;;;;4993755;28;19925;-68
2023/07/22 08:17:32;;;;;;;;;;;;;;;;;;4989721;28;20379;-68
2023/07/22 08:19:58;;;;;;;;;;;;;;;;;;4989972;28;19926;-67
2023/07/22 08:22:24;;;;;;;;;;;;;;;;;;4992264;28;19957;-67
2023/07/22 08:24:50;;;;;;;;;;;;;;;;;;4992394;28;19961;-69
2023/07/22 08:27:16;;;;;;;;;;;;;;;;;;4986656;28;19932;-67
2023/07/22 08:29:41;;;;;;;;;;;;;;;;;;4984655;28;19926;-67
2023/07/22 08:32:07;;;;;;;;;;;;;;;;;;4987821;28;19933;-68
2023/07/22 08:34:33;;;;;;;;;;;;;;;;;;5003041;28;19925;-67
2023/07/22 08:36:59;;;;;;;;;;;;;;;;;;5002640;28;19926;-67
2023/07/22 08:39:25;;;;;;;;;;;;;;;;;;5001632;28;19980;-67
2023/07/22 08:41:51;;;;;;;;;;;;;;;;;;5000773;28;21092;-67
2023/07/22 08:44:17;;;;;;;;;;;;;;;;;;5001087;28;19932;-68
2023/07/22 08:46:43;;;;;;;;;;;;;;;;;;5001293;28;19921;-68
2023/07/22 08:49:09;;;;;;;;;;;;;;;;;;4999441;28;20615;-68
2023/07/22 08:51:37;;;;;;;;;;;;;;;;;;5000394;28;19929;-68
2023/07/22 08:54:03;;;;;;;;;;;;;;;;;;5006739;28;19952;-68
2023/07/22 08:56:29;;;;;;;;;;;;;;;;;;5004397;28;19973;-69
2023/07/22 08:58:55;;;;;;;;;;;;;;;;;;5006978;28;19979;-68
2023/07/22 09:01:21;;;;;;;;;;;;;;;;;;5000592;28;19933;-63
2023/07/22 09:03:47;;;;;;;;;;;;;;;;;;4999795;28;20387;-65
2023/07/22 09:06:13;;;;;;;;;;;;;;;;;;5001069;28;20501;-64
2023/07/22 09:08:39;;;;;;;;;;;;;;;;;;4995207;28;20021;-64
2023/07/22 09:11:05;;;;;;;;;;;;;;;;;;4995182;28;20016;-63
2023/07/22 09:13:31;;;;;;;;;;;;;;;;;;5004891;28;20023;-63
2023/07/22 09:15:56;;;;;;;;;;;;;;;;;;5006164;28;19926;-63
2023/07/22 09:18:22;;;;;;;;;;;;;;;;;;5004477;28;19930;-63
2023/07/22 09:20:48;;;;;;;;;;;;;;;;;;5002848;28;19967;-65
2023/07/22 09:23:14;;;;;;;;;;;;;;;;;;5001663;28;19958;-65
2023/07/22 09:25:40;;;;;;;;;;;;;;;;;;5002146;28;19936;-65
2023/07/22 09:28:06;;;;;;;;;;;;;;;;;;4998282;28;19926;-65
2023/07/22 09:30:33;;;;;;;;;;;;;;;;;;5004411;28;20019;-65
2023/07/22 09:32:58;;;;;;;;;;;;;;;;;;4999351;28;20706;-66
2023/07/22 09:35:25;;;;;;;;;;;;;;;;;;5006092;28;20055;-67
2023/07/22 09:37:51;;;;;;;;;;;;;;;;;;4996813;28;20054;-65
2023/07/22 09:40:17;;;;;;;;;;;;;;;;;;5000549;28;19925;-66
2023/07/22 09:42:43;;;;;;;;;;;;;;;;;;4985713;28;19926;-65
2023/07/22 09:45:09;;;;;;;;;;;;;;;;;;5001144;28;20087;-65
2023/07/22 09:47:36;;;;;;;;;;;;;;;;;;5003217;28;20015;-66
2023/07/22 09:50:02;;;;;;;;;;;;;;;;;;4994517;28;19933;-65
2023/07/22 09:52:28;;;;;;;;;;;;;;;;;;4997634;28;19925;-65
2023/07/22 09:54:56;;;;;;;;;;;;;;;;;;5000831;28;19932;-68
2023/07/22 09:57:21;;;;;;;;;;;;;;;;;;4987656;28;20662;-66
2023/07/22 09:59:48;;;;;;;;;;;;;;;;;;5001350;28;19976;-64
2023/07/22 10:02:14;;;;;;;;;;;;;;;;;;5000560;28;20280;-67
2023/07/22 10:04:40;;;;;;;;;;;;;;;;;;5000888;28;20043;-65
2023/07/22 10:07:06;;;;;;;;;;;;;;;;;;4993046;28;20012;-66
2023/07/22 10:09:33;;;;;;;;;;;;;;;;;;4999586;28;19929;-63
2023/07/22 10:11:58;;;;;;;;;;;;;;;;;;4994690;28;20064;-65
2023/07/22 10:14:24;;;;;;;;;;;;;;;;;;4990319;28;20024;-63
2023/07/22 10:16:52;;;;;;;;;;;;;;;;;;4992334;28;19925;-61
2023/07/22 10:19:18;;;;;;;;;;;;;;;;;;5003516;28;19932;-62
2023/07/22 10:21:44;;;;;;;;;;;;;;;;;;5005163;28;19929;-63
2023/07/22 10:24:10;;;;;;;;;;;;;;;;;;5004944;28;19926;-64
2023/07/22 10:26:36;;;;;;;;;;;;;;;;;;5002058;28;19960;-66
2023/07/22 10:29:02;;;;;;;;;;;;;;;;;;5001141;28;20586;-64
2023/07/22 10:31:28;;;;;;;;;;;;;;;;;;5002775;28;19929;-65
2023/07/22 10:33:54;;;;;;;;;;;;;;;;;;5004921;28;20391;-65
2023/07/22 10:36:20;;;;;;;;;;;;;;;;;;4996414;28;19935;-65
2023/07/22 10:38:46;;;;;;;;;;;;;;;;;;5000294;28;19933;-65
2023/07/22 10:41:12;;;;;;;;;;;;;;;;;;4996088;28;19933;-64
2023/07/22 10:43:38;;;;;;;;;;;;;;;;;;4997821;28;19926;-65
2023/07/22 10:46:04;;;;;;;;;;;;;;;;;;4997964;28;19929;-65
2023/07/22 10:48:30;;;;;;;;;;;;;;;;;;4997367;28;19926;-67
2023/07/22 10:50:56;;;;;;;;;;;;;;;;;;4994220;28;19930;-67
2023/07/22 10:53:21;;;;;;;;;;;;;;;;;;4996432;28;20615;-68
2023/07/22 10:55:47;;;;;;;;;;;;;;;;;;5002139;28;19929;-66
2023/07/22 10:58:13;;;;;;;;;;;;;;;;;;5001557;28;20020;-66
2023/07/22 11:00:39;;;;;;;;;;;;;;;;;;4985277;28;19929;-67
2023/07/22 11:03:05;;;;;;;;;;;;;;;;;;4998520;28;19930;-66
2023/07/22 11:05:31;;;;;;;;;;;;;;;;;;5001338;28;20023;-66
2023/07/22 11:07:57;;;;;;;;;;;;;;;;;;4999526;28;20012;-65
2023/07/22 11:10:23;;;;;;;;;;;;;;;;;;4997166;28;19925;-65
2023/07/22 11:12:49;;;;;;;;;;;;;;;;;;4996805;28;19953;-66
2023/07/22 11:15:15;;;;;;;;;;;;;;;;;;5000230;28;20386;-67
2023/07/22 11:17:41;;;;;;;;;;;;;;;;;;4995897;28;19987;-65
2023/07/22 11:20:07;;;;;;;;;;;;;;;;;;4994561;28;19956;-66
2023/07/22 11:22:32;;;;;;;;;;;;;;;;;;4996714;28;19925;-65
2023/07/22 11:24:58;;;;;;;;;;;;;;;;;;4988948;28;19988;-66
2023/07/22 11:27:24;;;;;;;;;;;;;;;;;;4994012;28;19929;-65
2023/07/22 11:29:50;;;;;;;;;;;;;;;;;;4987859;28;19941;-65
2023/07/22 11:32:16;;;;;;;;;;;;;;;;;;4992984;28;19929;-65
2023/07/22 11:34:44;;;;;;;;;;;;;;;;;;4986593;28;19960;-65
2023/07/22 11:37:10;;;;;;;;;;;;;;;;;;4983626;28;19929;-66
2023/07/22 11:39:36;;;;;;;;;;;;;;;;;;4990028;28;19936;-64
2023/07/22 11:42:02;;;;;;;;;;;;;;;;;;4990935;28;19976;-65
2023/07/22 11:44:28;;;;;;;;;;;;;;;;;;4988491;28;19949;-65
2023/07/22 11:46:54;;;;;;;;;;;;;;;;;;4984139;28;19930;-65
2023/07/22 11:49:20;;;;;;;;;;;;;;;;;;4989357;28;20497;-65
2023/07/22 11:51:46;;;;;;;;;;;;;;;;;;4989000;28;19930;-65
2023/07/22 11:54:12;;;;;;;;;;;;;;;;;;4994956;28;19952;-65
2023/07/22 11:56:38;;;;;;;;;;;;;;;;;;4996998;28;20004;-66
2023/07/22 11:59:04;;;;;;;;;;;;;;;;;;4984498;28;20020;-66
2023/07/22 12:01:30;;;;;;;;;;;;;;;;;;4984045;28;19933;-65
2023/07/22 12:03:56;;;;;;;;;;;;;;;;;;4991184;28;20020;-64
2023/07/22 12:06:22;;;;;;;;;;;;;;;;;;4986512;28;20579;-65
2023/07/22 12:08:48;;;;;;;;;;;;;;;;;;4982421;28;19929;-65
2023/07/22 12:11:14;;;;;;;;;;;;;;;;;;4994153;28;19929;-65
2023/07/22 12:13:39;;;;;;;;;;;;;;;;;;4998686;28;19929;-65
2023/07/22 12:16:05;;;;;;;;;;;;;;;;;;4997316;28;19929;-64
2023/07/22 12:18:31;;;;;;;;;;;;;;;;;;4988300;28;19992;-64
2023/07/22 12:20:57;;;;;;;;;;;;;;;;;;5000825;28;19940;-65
2023/07/22 12:23:23;;;;;;;;;;;;;;;;;;4987444;28;19926;-65
2023/07/22 12:25:49;;;;;;;;;;;;;;;;;;4989021;28;20798;-65
2023/07/22 12:28:15;;;;;;;;;;;;;;;;;;4999927;28;20008;-65
2023/07/22 12:30:41;;;;;;;;;;;;;;;;;;4988302;28;20040;-65
2023/07/22 12:33:07;;;;;;;;;;;;;;;;;;4990791;28;19926;-65
2023/07/22 12:35:33;;;;;;;;;;;;;;;;;;4997281;28;20041;-65
2023/07/22 12:37:59;;;;;;;;;;;;;;;;;;5000666;28;19930;-65
2023/07/22 12:40:25;;;;;;;;;;;;;;;;;;4995585;28;19921;-65
2023/07/22 12:42:51;;;;;;;;;;;;;;;;;;4997228;28;20266;-66
2023/07/22 12:45:16;;;;;;;;;;;;;;;;;;4994985;28;20029;-65
2023/07/22 12:47:42;;;;;;;;;;;;;;;;;;4991285;28;20016;-65
2023/07/22 12:50:08;;;;;;;;;;;;;;;;;;4991074;28;19930;-66
2023/07/22 12:52:34;;;;;;;;;;;;;;;;;;4987730;28;19973;-65
2023/07/22 12:55:00;;;;;;;;;;;;;;;;;;4999470;28;19929;-66
2023/07/22 12:57:26;;;;;;;;;;;;;;;;;;4983194;28;20372;-67
2023/07/22 12:59:52;;;;;;;;;;;;;;;;;;4997230;28;20473;-67
2023/07/22 13:02:18;;;;;;;;;;;;;;;;;;5000073;28;19925;-66
2023/07/22 13:04:44;;;;;;;;;;;;;;;;;;4991796;28;19969;-65
2023/07/22 13:07:10;;;;;;;;;;;;;;;;;;4993337;28;19985;-66
2023/07/22 13:09:36;;;;;;;;;;;;;;;;;;4987748;28;19990;-67
2023/07/22 13:12:02;;;;;;;;;;;;;;;;;;5000433;28;19933;-62
2023/07/22 13:14:28;;;;;;;;;;;;;;;;;;4986276;28;19933;-66
2023/07/22 13:16:54;;;;;;;;;;;;;;;;;;4988092;28;20000;-65
2023/07/22 13:19:20;;;;;;;;;;;;;;;;;;4983856;28;20431;-66
2023/07/22 13:21:45;;;;;;;;;;;;;;;;;;4985805;28;19922;-66
2023/07/22 13:24:12;;;;;;;;;;;;;;;;;;4994288;28;19929;-65
2023/07/22 13:26:37;;;;;;;;;;;;;;;;;;4992665;28;20467;-65
2023/07/22 13:29:03;;;;;;;;;;;;;;;;;;4987784;28;19926;-65
2023/07/22 13:31:29;;;;;;;;;;;;;;;;;;4995739;28;19972;-66
2023/07/22 13:33:55;;;;;;;;;;;;;;;;;;4967897;28;19934;-65
2023/07/22 13:36:21;;;;;;;;;;;;;;;;;;4995824;28;20434;-66
2023/07/22 13:38:47;;;;;;;;;;;;;;;;;;5003703;28;19948;-66
2023/07/22 13:41:13;;;;;;;;;;;;;;;;;;5004027;28;19932;-66
2023/07/22 13:43:39;;;;;;;;;;;;;;;;;;5000702;28;19926;-65
2023/07/22 13:46:05;;;;;;;;;;;;;;;;;;5006512;28;19975;-66
2023/07/22 13:48:31;;;;;;;;;;;;;;;;;;5001905;28;20389;-65
2023/07/22 13:50:57;;;;;;;;;;;;;;;;;;5007081;28;19933;-63
2023/07/22 13:53:23;;;;;;;;;;;;;;;;;;4999773;28;19995;-64
2023/07/22 13:55:49;;;;;;;;;;;;;;;;;;5005373;28;19925;-64
2023/07/22 13:58:15;;;;;;;;;;;;;;;;;;5004320;28;19933;-63
2023/07/22 14:00:41;;;;;;;;;;;;;;;;;;5003591;28;19929;-63
2023/07/22 14:03:07;;;;;;;;;;;;;;;;;;5001510;28;20032;-62
2023/07/22 14:05:33;;;;;;;;;;;;;;;;;;4989614;28;19933;-63
2023/07/22 14:07:59;;;;;;;;;;;;;;;;;;5005752;28;19925;-63
2023/07/22 14:10:25;;;;;;;;;;;;;;;;;;5005231;28;19928;-63
2023/07/22 14:12:50;;;;;;;;;;;;;;;;;;4993831;28;19930;-64
2023/07/22 14:15:16;;;;;;;;;;;;;;;;;;4997963;28;19949;-62
2023/07/22 14:17:44;;;;;;;;;;;;;;;;;;4980011;28;20379;-62
2023/07/22 14:20:11;;;;;;;;;;;;;;;;;;4996297;28;19933;-64
2023/07/22 14:22:37;;;;;;;;;;;;;;;;;;4999878;28;19926;-64
2023/07/22 14:25:03;;;;;;;;;;;;;;;;;;4988941;28;19937;-62
2023/07/22 14:27:29;;;;;;;;;;;;;;;;;;4995576;28;19989;-62
2023/07/22 14:29:54;;;;;;;;;;;;;;;;;;5002426;28;19932;-63
2023/07/22 14:32:21;;;;;;;;;;;;;;;;;;5001841;28;19936;-63
2023/07/22 14:34:47;;;;;;;;;;;;;;;;;;5000459;28;19972;-64
2023/07/22 14:37:14;;;;;;;;;;;;;;;;;;4998278;28;19991;-64
2023/07/22 14:39:40;;;;;;;;;;;;;;;;;;4997628;28;19929;-64
2023/07/22 14:42:06;;;;;;;;;;;;;;;;;;5001138;28;19929;-64
2023/07/22 14:44:31;;;;;;;;;;;;;;;;;;4995629;28;19961;-64
2023/07/22 14:46:57;;;;;;;;;;;;;;;;;;4990482;28;19922;-63
2023/07/22 14:49:23;;;;;;;;;;;;;;;;;;4992368;28;19929;-63
2023/07/22 14:51:49;;;;;;;;;;;;;;;;;;4993100;28;19926;-66
2023/07/22 14:54:15;;;;;;;;;;;;;;;;;;4993525;28;19968;-64
2023/07/22 14:56:41;;;;;;;;;;;;;;;;;;5003517;28;19933;-66
2023/07/22 14:59:07;;;;;;;;;;;;;;;;;;5003191;28;19993;-65
2023/07/22 15:01:33;;;;;;;;;;;;;;;;;;5001715;28;20320;-63
2023/07/22 15:03:59;;;;;;;;;;;;;;;;;;4999720;28;19925;-64
2023/07/22 15:06:25;;;;;;;;;;;;;;;;;;4996560;28;19926;-64
2023/07/22 15:08:51;;;;;;;;;;;;;;;;;;4998639;28;19929;-65
2023/07/22 15:11:17;;;;;;;;;;;;;;;;;;4990833;28;19933;-66
2023/07/22 15:13:42;;;;;;;;;;;;;;;;;;4985927;28;19929;-65
2023/07/22 15:16:08;;;;;;;;;;;;;;;;;;4990864;28;19929;-64
2023/07/22 15:18:34;;;;;;;;;;;;;;;;;;5001098;28;20419;-65
2023/07/22 15:21:01;;;;;;;;;;;;;;;;;;4997041;28;20378;-64
2023/07/22 15:23:27;;;;;;;;;;;;;;;;;;4997350;28;19931;-64
2023/07/22 15:25:53;;;;;;;;;;;;;;;;;;4999816;28;19925;-64
2023/07/22 15:28:19;;;;;;;;;;;;;;;;;;4985995;28;20000;-65
2023/07/22 15:30:45;;;;;;;;;;;;;;;;;;5003244;28;20387;-64
2023/07/22 15:33:11;;;;;;;;;;;;;;;;;;4996139;28;19930;-65
2023/07/22 15:35:37;;;;;;;;;;;;;;;;;;4997598;28;19926;-65
2023/07/22 15:38:03;;;;;;;;;;;;;;;;;;4990712;28;19929;-66
2023/07/22 15:40:28;;;;;;;;;;;;;;;;;;4999440;28;20000;-64
2023/07/22 15:42:54;;;;;;;;;;;;;;;;;;4989498;28;19929;-65
2023/07/22 15:45:20;;;;;;;;;;;;;;;;;;4989252;28;20146;-65
2023/07/22 15:47:48;;;;;;;;;;;;;;;;;;4988569;28;20135;-65
2023/07/22 15:50:14;;;;;;;;;;;;;;;;;;4992524;28;19926;-64
2023/07/22 15:52:40;;;;;;;;;;;;;;;;;;4998973;28;19936;-64
2023/07/22 15:55:06;;;;;;;;;;;;;;;;;;4999435;28;19948;-64
2023/07/22 15:57:32;;;;;;;;;;;;;;;;;;5001183;28;19926;-64
2023/07/22 15:59:58;;;;;;;;;;;;;;;;;;4998584;28;19925;-64
2023/07/22 16:02:24;;;;;;;;;;;;;;;;;;4994071;28;19972;-64
2023/07/22 16:04:50;;;;;;;;;;;;;;;;;;5000659;28;20029;-65
2023/07/22 16:07:16;;;;;;;;;;;;;;;;;;5004094;28;19929;-65
2023/07/22 16:09:42;;;;;;;;;;;;;;;;;;4985239;28;20374;-64
2023/07/22 16:12:08;;;;;;;;;;;;;;;;;;5003293;28;20451;-64
2023/07/22 16:14:35;;;;;;;;;;;;;;;;;;4994330;28;20403;-65
2023/07/22 16:17:00;;;;;;;;;;;;;;;;;;5001811;28;19971;-65
2023/07/22 16:19:26;;;;;;;;;;;;;;;;;;4998391;28;19959;-65
2023/07/22 16:21:52;;;;;;;;;;;;;;;;;;4996108;28;19933;-64
2023/07/22 16:24:18;;;;;;;;;;;;;;;;;;4991647;28;19930;-65
2023/07/22 16:26:44;;;;;;;;;;;;;;;;;;4972656;28;19925;-64
2023/07/22 16:29:10;;;;;;;;;;;;;;;;;;5000297;28;20217;-64
2023/07/22 16:31:36;;;;;;;;;;;;;;;;;;4997336;28;19987;-64
2023/07/22 16:34:03;;;;;;;;;;;;;;;;;;4989889;28;20327;-64
2023/07/22 16:36:29;;;;;;;;;;;;;;;;;;4991426;28;19926;-64
2023/07/22 16:38:54;;;;;;;;;;;;;;;;;;4989489;28;19929;-64